Time;durP1;ratioP1;P1;durP2;ratioP2;P2;SDS_P1;SDS_P2;PMS_P1;PMS_P2;Temp;Humidity;BMP_temperature;BMP_pressure;BME280_temperature;BME280_humidity;BME280_pressure;Samples;Min_cycle;Max_cycle;Signal;HPM_P1;HPM_P2
2022/05/12 00:00:12;;;;;;;13.78;12.20;;;;;;;17.83;54.18;99601.80;1602817;89;28044;-67
2022/05/12 00:02:40;;;;;;;17.42;12.75;;;;;;;17.81;54.56;99596.48;1602687;89;25521;-66
2022/05/12 00:05:08;;;;;;;15.05;12.43;;;;;;;17.77;54.43;99595.08;1602850;89;25671;-66
2022/05/12 00:07:35;;;;;;;12.88;11.45;;;;;;;17.75;54.46;99597.41;1602804;89;26302;-67
2022/05/12 00:10:02;;;;;;;16.87;12.03;;;;;;;17.72;54.42;99594.05;1602861;88;25528;-66
2022/05/12 00:12:28;;;;;;;16.73;11.70;;;;;;;17.68;54.69;99592.64;1603371;88;27882;-66
2022/05/12 00:14:55;;;;;;;12.85;11.57;;;;;;;17.68;54.79;99590.50;1603430;89;25430;-67
2022/05/12 00:17:21;;;;;;;15.00;12.65;;;;;;;17.66;54.89;99583.25;1603522;88;25499;-67
2022/05/12 00:19:48;;;;;;;17.82;11.75;;;;;;;17.63;54.91;99582.63;1603424;89;27832;-67
2022/05/12 00:22:14;;;;;;;13.03;10.98;;;;;;;17.61;55.01;99579.48;1603509;88;25631;-66
2022/05/12 00:24:40;;;;;;;16.07;12.58;;;;;;;17.58;54.97;99580.23;1603432;88;27405;-66
2022/05/12 00:27:06;;;;;;;14.00;12.20;;;;;;;17.57;55.24;99578.64;1603366;89;25588;-66
2022/05/12 00:29:32;;;;;;;13.65;11.88;;;;;;;17.53;55.42;99571.77;1603478;89;25533;-67
2022/05/12 00:32:01;;;;;;;13.85;11.33;;;;;;;17.52;55.45;99576.46;1603699;88;25623;-67
2022/05/12 00:34:27;;;;;;;15.72;11.68;;;;;;;17.50;55.53;99571.95;1603515;89;25819;-67
2022/05/12 00:36:54;;;;;;;13.32;12.00;;;;;;;17.46;55.46;99571.11;1603483;88;27385;-66
2022/05/12 00:39:20;;;;;;;15.65;12.63;;;;;;;17.45;55.60;99571.48;1603412;88;25491;-67
2022/05/12 00:41:46;;;;;;;12.90;11.10;;;;;;;17.42;55.68;99570.84;1603454;88;25437;-67
2022/05/12 00:44:16;;;;;;;14.43;12.33;;;;;;;17.39;55.73;99569.66;1603439;89;25686;-67
2022/05/12 00:46:44;;;;;;;13.40;11.70;;;;;;;17.37;55.97;99566.52;1603476;88;25614;-67
2022/05/12 00:49:31;;;;;;;13.10;11.75;;;;;;;17.34;55.93;99565.89;1603724;88;27358;-67
2022/05/12 00:52:08;;;;;;;20.45;12.18;;;;;;;17.32;55.98;99561.38;1603038;88;25589;-67
2022/05/12 00:54:48;;;;;;;14.58;11.80;;;;;;;17.30;56.13;99556.88;1603468;88;25565;-67
2022/05/12 00:57:40;;;;;;;18.52;12.28;;;;;;;17.28;56.14;99550.97;1603517;88;26304;-66
2022/05/12 01:00:11;;;;;;;18.75;11.73;;;;;;;17.25;56.06;99554.47;1603510;89;25645;-68
2022/05/12 01:02:40;;;;;;;14.85;11.90;;;;;;;17.21;56.34;99553.63;1603458;89;27457;-67
2022/05/12 01:05:08;;;;;;;13.58;11.88;;;;;;;17.20;56.45;99556.14;1603403;88;25668;-67
2022/05/12 01:07:36;;;;;;;16.12;11.95;;;;;;;17.15;56.37;99551.22;1603511;88;25650;-67
2022/05/12 01:10:05;;;;;;;17.67;12.33;;;;;;;17.14;56.58;99554.31;1603483;89;25687;-68
2022/05/12 01:12:32;;;;;;;;;;;;;;;17.11;56.65;99550.40;1605247;88;25591;-69
2022/05/12 01:14:58;;;;;;;15.43;11.48;;;;;;;17.10;56.74;99537.88;1602837;89;28149;-69
2022/05/12 01:17:24;;;;;;;13.00;11.70;;;;;;;17.10;56.74;99541.20;1602752;89;25635;-69
2022/05/12 01:19:51;;;;;;;15.58;12.20;;;;;;;17.07;56.81;99539.98;1602765;89;25418;-68
2022/05/12 01:22:51;;;;;;;16.27;11.63;;;;;;;17.06;56.98;99538.43;1602756;89;26307;-68
2022/05/12 01:25:22;;;;;;;16.35;11.80;;;;;;;17.05;56.84;99535.48;1602846;89;25671;-67
2022/05/12 01:27:49;;;;;;;14.80;11.50;;;;;;;17.03;56.73;99533.70;1602834;88;27404;-66
2022/05/12 01:30:19;;;;;;;13.90;11.33;;;;;;;17.01;57.13;99533.30;1602729;88;25721;-66
2022/05/12 01:32:47;;;;;;;19.00;11.60;;;;;;;16.99;57.13;99532.85;1602825;89;25673;-66
2022/05/12 01:35:17;;;;;;;12.88;11.08;;;;;;;16.96;57.20;99522.69;1602726;89;25631;-66
2022/05/12 01:37:45;;;;;;;12.43;10.93;;;;;;;16.95;57.23;99525.98;1602790;88;25683;-66
2022/05/12 01:40:17;;;;;;;14.50;11.50;;;;;;;16.93;57.40;99518.73;1602807;89;27402;-66
2022/05/12 01:42:44;;;;;;;14.80;11.65;;;;;;;16.93;57.32;99518.73;1602681;88;25502;-66
2022/05/12 01:45:12;;;;;;;15.13;11.35;;;;;;;16.93;57.41;99516.59;1602791;89;25626;-66
2022/05/12 01:47:40;;;;;;;17.80;11.90;;;;;;;16.92;57.44;99513.06;1625590;86;25696;-66
2022/05/12 01:50:09;;;;;;;23.05;11.38;;;;;;;16.92;57.38;99512.28;1655148;86;25661;-66
2022/05/12 01:52:38;;;;;;;14.38;11.00;;;;;;;16.92;57.49;99510.33;1655267;86;27344;-66
2022/05/12 01:55:06;;;;;;;14.83;11.22;;;;;;;16.90;57.55;99508.55;1655507;86;25585;-66
2022/05/12 01:57:32;;;;;;;13.48;10.48;;;;;;;16.90;57.45;99508.55;1655443;86;25460;-66
2022/05/12 01:59:58;;;;;;;15.05;11.65;;;;;;;16.90;57.56;99498.22;1655425;86;25748;-66
2022/05/12 02:02:26;;;;;;;18.98;11.00;;;;;;;16.90;57.56;99507.77;1655443;86;25407;-70
2022/05/12 02:04:52;;;;;;;13.43;10.43;;;;;;;16.90;57.55;99500.95;1655481;86;27421;-66
2022/05/12 02:07:18;;;;;;;12.98;10.93;;;;;;;16.90;57.44;99505.82;1655331;86;25814;-66
2022/05/12 02:09:45;;;;;;;14.53;10.85;;;;;;;16.89;57.48;99502.90;1655495;86;25544;-66
2022/05/12 02:12:11;;;;;;;12.47;10.35;;;;;;;16.88;57.50;99496.44;1655450;85;26361;-66
2022/05/12 02:14:37;;;;;;;13.13;10.65;;;;;;;16.88;57.66;99496.44;1655550;86;25588;-66
2022/05/12 02:17:04;;;;;;;14.73;10.70;;;;;;;16.87;57.45;99494.27;1655550;86;27423;-66
2022/05/12 02:19:30;;;;;;;11.90;9.43;;;;;;;16.88;57.62;99486.88;1655498;86;25570;-66
2022/05/12 02:21:58;;;;;;;14.03;10.72;;;;;;;16.87;57.52;99482.56;1655573;86;25408;-66
2022/05/12 02:24:24;;;;;;;11.30;9.93;;;;;;;16.88;57.70;99481.41;1655495;86;25707;-66
2022/05/12 02:26:50;;;;;;;13.88;10.48;;;;;;;16.88;57.54;99490.39;1655539;86;25337;-65
2022/05/12 02:29:16;;;;;;;17.65;10.40;;;;;;;16.88;57.48;99481.41;1655585;86;27413;-66
2022/05/12 02:31:42;;;;;;;12.60;10.00;;;;;;;16.88;57.52;99482.20;1655456;86;25894;-66
2022/05/12 02:34:08;;;;;;;13.15;10.20;;;;;;;16.87;57.78;99478.47;1655583;86;25389;-67
2022/05/12 02:36:34;;;;;;;12.95;10.55;;;;;;;16.85;57.61;99478.83;1655525;86;25693;-68
2022/05/12 02:39:01;;;;;;;13.50;10.48;;;;;;;16.86;57.72;99474.95;1662574;86;25656;-68
2022/05/12 02:41:27;;;;;;;17.98;9.98;;;;;;;16.86;57.73;99467.34;1655570;86;27515;-68
2022/05/12 02:43:53;;;;;;;15.78;10.55;;;;;;;16.85;57.65;99472.00;1655417;86;25718;-68
2022/05/12 02:46:19;;;;;;;19.60;10.30;;;;;;;16.86;57.54;99461.30;1655571;86;25393;-68
2022/05/12 02:48:47;;;;;;;14.78;10.15;;;;;;;16.86;57.55;99466.77;1655529;86;25630;-66
2022/05/12 02:51:14;;;;;;;13.13;9.28;;;;;;;16.87;57.68;99466.95;1655579;86;25581;-66
2022/05/12 02:53:41;;;;;;;16.65;9.95;;;;;;;16.87;57.69;99461.49;1655546;86;27903;-66
2022/05/12 02:56:09;;;;;;;12.93;9.33;;;;;;;16.90;57.66;99461.34;1655469;86;25575;-66
2022/05/12 02:58:36;;;;;;;14.28;9.50;;;;;;;16.91;57.47;99453.37;1655523;86;25577;-66
2022/05/12 03:01:05;;;;;;;15.25;9.35;;;;;;;16.93;57.52;99459.23;1655490;86;25604;-66
2022/05/12 03:03:32;;;;;;;11.33;9.17;;;;;;;16.94;57.46;99447.14;1655747;86;25628;-66
2022/05/12 03:05:58;;;;;;;12.45;9.65;;;;;;;16.94;57.46;99450.67;1655501;86;27340;-68
2022/05/12 03:08:25;;;;;;;12.98;8.85;;;;;;;16.96;57.48;99451.08;1655429;86;25398;-65
2022/05/12 03:10:51;;;;;;;12.53;9.05;;;;;;;16.97;57.47;99449.12;1655519;86;25487;-65
2022/05/12 03:13:18;;;;;;;14.20;8.78;;;;;;;16.99;57.39;99450.91;1655468;86;25645;-66
2022/05/12 03:15:44;;;;;;;15.00;9.70;;;;;;;17.01;57.30;99445.88;1655590;86;25436;-66
2022/05/12 03:18:11;;;;;;;11.20;8.88;;;;;;;17.03;57.26;99444.92;1655550;86;27451;-66
2022/05/12 03:20:37;;;;;;;12.35;9.08;;;;;;;17.05;57.37;99438.50;1655405;86;27106;-66
2022/05/12 03:23:04;;;;;;;17.37;8.98;;;;;;;17.06;57.27;99439.27;1655490;86;25545;-66
2022/05/12 03:25:31;;;;;;;13.72;9.45;;;;;;;17.08;57.28;99437.75;1655477;86;25627;-66
2022/05/12 03:27:59;;;;;;;11.70;8.15;;;;;;;17.09;57.26;99438.53;1655574;86;25588;-67
2022/05/12 03:30:28;;;;;;;10.55;9.30;;;;;;;17.10;57.16;99437.38;1655494;86;27896;-66
2022/05/12 03:32:54;;;;;;;11.08;8.88;;;;;;;17.12;57.15;99433.69;1655469;86;25628;-66
2022/05/12 03:35:21;;;;;;;12.93;9.10;;;;;;;17.12;57.29;99435.84;1655507;86;25432;-66
2022/05/12 03:37:47;;;;;;;10.90;8.48;;;;;;;17.14;57.21;99437.61;1655510;86;25681;-66
2022/05/12 03:40:17;;;;;;;13.00;8.68;;;;;;;17.16;57.43;99438.05;1655568;86;25629;-66
2022/05/12 03:42:45;;;;;;;11.38;8.33;;;;;;;17.18;57.25;99429.47;1655515;86;28137;-66
2022/05/12 03:45:13;;;;;;;17.92;9.33;;;;;;;17.21;57.18;99430.06;1655406;86;25752;-65
2022/05/12 03:47:48;;;;;;;12.98;8.38;;;;;;;17.24;57.15;99438.89;1655539;86;25405;-66
2022/05/12 03:50:17;;;;;;;9.63;8.73;;;;;;;17.27;57.07;99438.14;1655552;86;26366;-67
2022/05/12 03:52:43;;;;;;;11.25;8.43;;;;;;;17.33;57.07;99434.48;1655582;86;25434;-67
2022/05/12 03:55:11;;;;;;;11.83;8.33;;;;;;;17.36;57.03;99435.88;1655570;86;27556;-66
2022/05/12 03:57:39;;;;;;;9.88;7.60;;;;;;;17.42;56.94;99432.81;1655455;86;25577;-66
2022/05/12 04:00:10;;;;;;;14.98;8.20;;;;;;;17.46;56.90;99431.69;1655524;86;25631;-66
2022/05/12 04:02:37;;;;;;;14.25;8.05;;;;;;;17.54;56.86;99427.09;1655473;86;25611;-67
2022/05/12 04:05:05;;;;;;;7.87;7.05;;;;;;;17.60;56.76;99419.31;1655538;86;25487;-67
2022/05/12 04:07:31;;;;;;;8.73;7.33;;;;;;;17.66;56.62;99419.95;1655737;86;27419;-67
2022/05/12 04:10:01;;;;;;;10.45;7.92;;;;;;;17.74;56.55;99427.63;1655465;86;25627;-67
2022/05/12 04:12:27;;;;;;;9.50;7.62;;;;;;;17.78;56.47;99424.35;1655606;86;25647;-68
2022/05/12 04:14:53;;;;;;;9.05;6.97;;;;;;;17.85;56.44;99415.42;1655441;86;25844;-67
2022/05/12 04:17:21;;;;;;;15.18;8.03;;;;;;;17.90;56.17;99424.67;1655553;86;25671;-67
2022/05/12 04:19:50;;;;;;;14.33;7.78;;;;;;;17.92;56.10;99411.39;1655491;86;27401;-68
2022/05/12 04:22:17;;;;;;;9.95;8.08;;;;;;;17.95;56.00;99407.13;1655513;86;25515;-67
2022/05/12 04:24:43;;;;;;;14.47;7.90;;;;;;;17.98;56.02;99417.28;1655491;86;25597;-66
2022/05/12 04:27:12;;;;;;;10.55;7.65;;;;;;;18.01;55.88;99407.73;1655466;86;25626;-66
2022/05/12 04:29:42;;;;;;;8.70;7.60;;;;;;;18.05;55.78;99403.09;1655662;86;25580;-66
2022/05/12 04:32:09;;;;;;;10.35;7.33;;;;;;;18.12;55.84;99406.45;1655482;86;27346;-67
2022/05/12 04:37:30;;;;;;;14.53;7.85;;;;;;;18.23;55.55;99401.81;1655478;86;25468;-67
2022/05/12 04:40:13;;;;;;;19.82;7.72;;;;;;;18.29;55.47;99406.36;1655234;85;26247;-65
2022/05/12 04:42:40;;;;;;;14.20;6.58;;;;;;;18.35;55.33;99402.66;1655498;86;25632;-66
2022/05/12 04:45:09;;;;;;;18.23;6.95;;;;;;;18.42;55.49;99406.23;1655421;86;27385;-72
2022/05/12 04:47:38;;;;;;;8.25;6.92;;;;;;;18.52;55.26;99403.92;1655434;86;25650;-74
2022/05/12 04:50:09;;;;;;;16.07;6.75;;;;;;;18.58;55.02;99402.40;1655612;86;34734;-73
2022/05/12 04:52:35;;;;;;;11.10;6.85;;;;;;;18.65;54.74;99402.42;1655458;86;25653;-75
2022/05/12 04:55:02;;;;;;;13.53;6.95;;;;;;;18.71;54.53;99402.83;1655557;86;25628;-75
2022/05/12 04:57:42;;;;;;;10.05;6.80;;;;;;;18.78;54.35;99401.47;1655535;86;27320;-75
2022/05/12 05:00:32;;;;;;;15.13;7.33;;;;;;;18.83;54.21;99403.30;1655558;86;25653;-74
2022/05/12 05:02:59;;;;;;;13.58;7.03;;;;;;;18.91;54.05;99402.73;1655597;86;25570;-75
2022/05/12 05:05:27;;;;;;;8.53;7.00;;;;;;;19.01;53.92;99402.56;1655459;86;26353;-74
2022/05/12 05:07:54;;;;;;;9.68;6.53;;;;;;;19.07;53.67;99404.33;1655579;86;25670;-74
2022/05/12 05:10:21;;;;;;;12.15;7.33;;;;;;;19.16;53.50;99407.50;1655559;86;27343;-75
2022/05/12 05:12:49;;;;;;;17.35;7.15;;;;;;;19.25;53.23;99398.90;1655518;85;25474;-74
2022/05/12 05:15:16;;;;;;;12.10;7.00;;;;;;;19.36;53.10;99395.59;1655470;86;25650;-74
2022/05/12 05:17:44;;;;;;;9.98;6.30;;;;;;;19.48;52.89;99392.46;1655441;86;25742;-74
2022/05/12 05:20:19;;;;;;;8.35;6.70;;;;;;;19.58;52.77;99389.51;1655483;86;25436;-74
2022/05/12 05:22:46;;;;;;;9.88;5.67;;;;;;;19.67;52.60;99385.02;1655470;86;28062;-73
2022/05/12 05:25:15;;;;;;;11.45;6.30;;;;;;;19.81;52.35;99380.14;1654616;86;25720;-73
2022/05/12 05:27:43;;;;;;;11.57;6.58;;;;;;;19.95;52.03;99386.41;1655011;86;25471;-74
2022/05/12 05:30:14;;;;;;;10.32;6.20;;;;;;;20.10;51.64;99372.04;1655206;86;26340;-75
2022/05/12 05:32:40;;;;;;;12.47;6.35;;;;;;;20.24;51.30;99382.20;1655456;86;25606;-73
2022/05/12 05:35:08;;;;;;;11.40;6.90;;;;;;;20.41;50.79;99391.56;1655396;86;27981;-74
2022/05/12 05:37:36;;;;;;;25.00;7.05;;;;;;;20.50;50.49;99387.05;1639762;86;25616;-74
2022/05/12 05:40:05;;;;;;;15.45;6.17;;;;;;;20.59;50.39;99384.64;1655437;86;25426;-75
2022/05/12 05:42:32;;;;;;;10.85;7.17;;;;;;;20.73;50.06;99384.42;1655765;86;25443;-74
2022/05/12 05:44:59;;;;;;;12.53;6.75;;;;;;;20.83;49.97;99373.97;1655518;86;25575;-70
2022/05/12 05:47:25;;;;;;;12.28;5.78;;;;;;;20.95;49.60;99374.88;1655604;86;28131;-70
2022/05/12 05:49:51;;;;;;;8.95;5.72;;;;;;;21.05;49.64;99371.27;1655513;86;25925;-70
2022/05/12 05:55:03;;;;;;;12.70;6.00;;;;;;;21.25;48.78;99382.55;1655535;86;25665;-71
2022/05/12 05:57:31;;;;;;;13.75;5.65;;;;;;;21.38;48.66;99375.17;1655589;86;25419;-71
2022/05/12 05:59:59;;;;;;;16.17;6.58;;;;;;;21.49;48.48;99371.79;1655565;86;27542;-71
2022/05/12 06:02:26;;;;;;;11.33;6.58;;;;;;;21.61;47.70;99373.27;1655744;86;25415;-71
2022/05/12 06:04:52;;;;;;;9.53;6.00;;;;;;;21.70;47.97;99364.53;1655551;86;25403;-70
2022/05/12 06:07:18;;;;;;;16.55;6.03;;;;;;;21.80;47.60;99375.44;1655324;86;25613;-71
2022/05/12 06:09:45;;;;;;;10.60;5.62;;;;;;;21.94;47.11;99368.23;1655358;86;25595;-69
2022/05/12 06:12:11;;;;;;;8.75;6.10;;;;;;;22.06;47.40;99360.83;1655230;86;27415;-73
2022/05/12 06:14:38;;;;;;;18.73;6.35;;;;;;;22.18;46.74;99362.27;1656685;86;25593;-74
2022/05/12 06:17:06;;;;;;;15.38;6.55;;;;;;;22.21;46.71;99361.46;1657604;86;25214;-76
2022/05/12 06:19:32;;;;;;;12.28;6.00;;;;;;;22.24;46.48;99366.16;1657358;86;25629;-75
2022/05/12 06:22:00;;;;;;;13.58;5.80;;;;;;;22.35;46.33;99358.56;1657288;86;25734;-74
2022/05/12 06:24:27;;;;;;;12.25;5.60;;;;;;;22.48;46.05;99365.70;1637755;86;27346;-72
2022/05/12 06:26:53;;;;;;;15.25;5.60;;;;;;;22.64;45.89;99364.33;1656627;86;25629;-72
2022/05/12 06:29:20;;;;;;;15.03;5.85;;;;;;;22.79;45.49;99364.92;1656717;86;25709;-72
2022/05/12 06:31:47;;;;;;;14.75;5.40;;;;;;;22.97;45.44;99368.79;1656673;86;25615;-71
2022/05/12 06:34:15;;;;;;;26.00;6.30;;;;;;;23.14;45.02;99371.94;1656733;86;25665;-72
2022/05/12 06:36:43;;;;;;;12.65;4.92;;;;;;;23.29;44.73;99360.87;1656790;86;27416;-71
2022/05/12 06:39:10;;;;;;;9.90;5.47;;;;;;;23.46;43.47;99364.54;1656570;86;25627;-73
2022/05/12 06:41:36;;;;;;;19.25;6.90;;;;;;;23.64;44.27;99368.37;1646527;86;25584;-72
2022/05/12 06:44:04;;;;;;;11.33;5.22;;;;;;;23.84;42.65;99374.58;1647489;86;25731;-72
2022/05/12 06:46:30;;;;;;;19.05;6.12;;;;;;;24.02;42.20;99377.00;1646534;87;25679;-73
2022/05/12 06:48:57;;;;;;;6.95;4.80;;;;;;;24.15;42.74;99378.55;1646516;86;27324;-73
2022/05/12 06:51:23;;;;;;;15.93;5.53;;;;;;;24.29;42.16;99358.92;1646467;87;25481;-73
2022/05/12 06:53:49;;;;;;;9.75;5.85;;;;;;;24.50;42.00;99366.02;1646485;87;25606;-72
2022/05/12 06:56:15;;;;;;;23.75;6.25;;;;;;;24.70;40.52;99397.03;1646342;86;25677;-72
2022/05/12 06:58:42;;;;;;;20.90;6.97;;;;;;;24.77;39.88;99375.55;1646579;87;25627;-72
2022/05/12 07:01:09;;;;;;;14.53;5.50;;;;;;;24.87;39.13;99382.64;1646398;87;27336;-72
2022/05/12 07:03:35;;;;;;;21.85;6.42;;;;;;;24.87;38.67;99380.64;1646437;86;25737;-73
2022/05/12 07:06:02;;;;;;;16.02;5.28;;;;;;;24.97;39.93;99369.18;1646416;86;25468;-73
2022/05/12 07:08:29;;;;;;;14.78;5.30;;;;;;;25.17;39.97;99375.43;1646505;86;26389;-73
2022/05/12 07:10:55;;;;;;;17.98;5.85;;;;;;;25.37;39.99;99377.38;1646452;87;25729;-72
2022/05/12 07:13:24;;;;;;;12.28;6.28;;;;;;;25.63;38.43;99380.31;1646410;85;27279;-72
2022/05/12 07:15:50;;;;;;;13.40;5.65;;;;;;;25.72;39.18;99363.85;1623459;87;25638;-73
2022/05/12 07:18:19;;;;;;;23.45;5.95;;;;;;;25.88;38.75;99364.41;1625590;87;25659;-73
2022/05/12 07:29:00;;;;;;;17.60;5.62;;;;;;;26.21;38.10;99384.54;1646356;87;25706;-71
2022/05/12 07:31:26;;;;;;;14.18;5.50;;;;;;;26.31;37.43;99373.61;1646503;87;25613;-71
2022/05/12 07:33:52;;;;;;;15.72;5.12;;;;;;;26.43;37.80;99383.34;1646471;87;26251;-72
2022/05/12 07:36:38;;;;;;;19.50;6.08;;;;;;;26.64;37.50;99369.48;1646435;86;25309;-72
2022/05/12 07:39:05;;;;;;;25.82;5.62;;;;;;;26.92;36.98;99372.63;1646444;86;27330;-72
2022/05/12 07:41:32;;;;;;;15.08;5.15;;;;;;;27.10;36.23;99389.33;1646447;86;25472;-72
2022/05/12 07:44:00;;;;;;;12.93;5.78;;;;;;;27.17;35.80;99384.94;1646397;86;25637;-73
2022/05/12 07:46:30;;;;;;;15.30;5.92;;;;;;;27.02;35.83;99397.09;1646442;87;25684;-72
2022/05/12 07:48:57;;;;;;;21.50;6.33;;;;;;;26.80;35.28;99408.84;1646516;86;25537;-73
2022/05/12 07:51:24;;;;;;;16.30;5.92;;;;;;;26.77;35.50;99396.47;1646444;87;27384;-73
2022/05/12 07:53:52;;;;;;;21.52;5.75;;;;;;;26.68;35.57;99415.16;1646392;87;25736;-73
2022/05/12 07:56:23;;;;;;;19.05;6.10;;;;;;;26.58;35.44;99427.28;1646418;86;25700;-73
2022/05/12 07:58:51;;;;;;;25.88;6.12;;;;;;;26.61;35.53;99420.86;1646429;87;25754;-73
2022/05/12 08:01:19;;;;;;;52.53;8.03;;;;;;;26.80;35.90;99431.63;1646463;86;25674;-74
2022/05/12 08:03:46;;;;;;;20.70;6.53;;;;;;;26.84;35.10;99426.16;1646535;87;28051;-73
2022/05/12 08:06:15;;;;;;;20.43;6.47;;;;;;;26.84;35.17;99448.96;1646468;86;25692;-74
2022/05/12 08:08:48;;;;;;;20.02;7.70;;;;;;;26.90;35.98;99442.25;1646624;87;25602;-73
2022/05/12 08:11:15;;;;;;;21.15;7.85;;;;;;;27.02;36.25;99441.48;1646426;87;25775;-74
2022/05/12 08:13:45;;;;;;;19.07;6.75;;;;;;;27.11;35.37;99462.44;1646446;85;25570;-73
2022/05/12 08:16:12;;;;;;;15.90;6.25;;;;;;;26.97;35.51;99453.93;1625698;87;27495;-73
2022/05/12 08:18:38;;;;;;;14.55;6.47;;;;;;;27.02;35.94;99459.52;1646415;86;25789;-73
2022/05/12 08:21:05;;;;;;;13.03;6.83;;;;;;;27.16;35.25;99453.56;1646429;87;25422;-73
2022/05/12 08:23:32;;;;;;;12.58;5.92;;;;;;;27.32;35.39;99483.23;1623420;87;25575;-74
2022/05/12 08:25:58;;;;;;;17.57;5.58;;;;;;;27.27;35.50;99485.77;1609603;86;26580;-73
2022/05/12 08:28:26;;;;;;;10.93;5.80;;;;;;;27.23;35.66;99493.43;1620017;88;27350;-73
2022/05/12 08:30:53;;;;;;;12.80;5.65;;;;;;;27.12;35.64;99510.38;1619880;88;25762;-73
2022/05/12 08:33:20;;;;;;;9.70;5.28;;;;;;;26.98;35.77;99514.35;1616056;88;25617;-73
2022/05/12 08:35:48;;;;;;;8.55;5.17;;;;;;;26.84;35.72;99520.47;1594333;89;25933;-74
2022/05/12 08:38:16;;;;;;;10.68;5.60;;;;;;;26.77;36.03;99524.06;1594324;88;25703;-73
2022/05/12 08:41:06;;;;;;;13.60;5.83;;;;;;;26.61;35.54;99526.23;1594619;90;27349;-74
2022/05/12 08:43:59;;;;;;;14.00;5.60;;;;;;;26.32;36.11;99540.84;1594348;90;25420;-73
2022/05/12 08:46:36;;;;;;;16.90;6.25;;;;;;;26.02;36.46;99571.10;1593856;89;25281;-73
2022/05/12 08:49:25;;;;;;;11.75;3.98;;;;;;;25.58;36.19;99581.56;1584933;89;26488;-73
2022/05/12 08:51:56;;;;;;;19.03;4.63;;;;;;;25.20;36.46;99584.09;1594610;90;25668;-73
2022/05/12 08:54:26;;;;;;;15.43;4.28;;;;;;;24.85;36.93;99593.86;1593934;90;27896;-73
2022/05/12 08:57:03;;;;;;;16.93;4.80;;;;;;;24.73;37.37;99589.72;1594243;90;25671;-74
2022/05/12 08:59:31;;;;;;;16.50;4.72;;;;;;;24.60;37.59;99600.02;1594407;90;25671;-74
2022/05/12 09:02:30;;;;;;;15.93;5.03;;;;;;;24.44;37.89;99615.06;1594267;89;26180;-74
2022/05/12 09:05:03;;;;;;;;;;;;;;;24.38;38.07;99629.17;1596519;89;27449;-74
2022/05/12 09:07:44;;;;;;;11.30;3.42;;;;;;;24.44;38.08;99628.88;1594405;89;28465;-74
2022/05/12 09:10:51;;;;;;;13.08;4.22;;;;;;;24.49;37.57;99644.22;1593082;89;25581;-74
2022/05/12 09:13:24;;;;;;;25.88;4.42;;;;;;;24.51;37.60;99641.20;1594313;88;25634;-72
2022/05/12 09:16:12;;;;;;;15.85;4.08;;;;;;;24.62;37.84;99642.45;1599602;88;25688;-74
2022/05/12 09:18:39;;;;;;;16.45;4.03;;;;;;;24.70;37.70;99656.31;1604262;89;25586;-73
2022/05/12 09:21:14;;;;;;;19.45;3.52;;;;;;;24.68;37.86;99657.34;1604653;89;27457;-73
2022/05/12 09:23:41;;;;;;;13.28;3.90;;;;;;;24.64;37.74;99675.18;1604504;89;25681;-74
2022/05/12 09:26:37;;;;;;;9.45;3.77;;;;;;;24.47;37.78;99677.80;1604427;89;25818;-73
2022/05/12 09:29:23;;;;;;;13.38;6.08;;;;;;;24.30;37.90;99674.72;1576890;91;25639;-73
2022/05/12 09:32:07;;;;;;;10.63;2.83;;;;;;;24.16;38.43;99667.39;1576683;91;25682;-74
2022/05/12 09:34:38;;;;;;;11.30;4.08;;;;;;;24.13;38.23;99664.88;1527789;93;27465;-72
2022/05/12 09:37:20;;;;;;;12.18;3.47;;;;;;;24.08;38.56;99679.16;1527381;93;25773;-72
2022/05/12 09:39:57;;;;;;;13.35;3.37;;;;;;;24.07;38.73;99681.73;1527561;93;25753;-74
2022/05/12 09:42:35;;;;;;;8.23;3.30;;;;;;;24.18;38.75;99674.08;1527434;93;25621;-73
2022/05/12 09:45:30;;;;;;;12.03;3.10;;;;;;;24.39;38.87;99677.72;1527566;93;25821;-74
2022/05/12 09:48:20;;;;;;;13.13;2.60;;;;;;;24.69;37.93;99662.26;1524767;93;28009;-74
2022/05/12 09:50:48;;;;;;;6.47;2.33;;;;;;;24.45;36.92;99683.55;1508228;93;25724;-73
2022/05/12 09:53:30;;;;;;;13.13;2.17;;;;;;;24.13;37.14;99682.84;1527409;93;25755;-72
2022/05/12 09:56:05;;;;;;;8.73;2.33;;;;;;;23.85;36.97;99712.41;1527352;93;25706;-72
2022/05/12 09:58:42;;;;;;;16.40;2.12;;;;;;;23.89;37.64;99710.98;1527585;93;25636;-70
2022/05/12 10:01:22;;;;;;;9.33;1.90;;;;;;;24.12;37.87;99718.55;1527420;93;28037;-71
2022/05/12 10:09:31;;;;;;;6.72;1.95;;;;;;;25.02;36.64;99729.67;1535559;92;26992;-72
2022/05/12 10:12:17;;;;;;;9.88;2.02;;;;;;;25.08;36.40;99750.70;1592259;89;25653;-71
2022/05/12 10:14:51;;;;;;;17.25;2.85;;;;;;;24.95;35.91;99761.61;1619892;85;27212;-72
2022/05/12 10:17:38;;;;;;;14.20;2.33;;;;;;;24.80;35.96;99754.12;1646288;87;25645;-72
2022/05/12 10:20:19;;;;;;;19.80;2.58;;;;;;;24.66;36.04;99759.89;1646317;86;25741;-71
2022/05/12 10:23:13;;;;;;;17.65;2.60;;;;;;;24.51;36.24;99770.34;1646117;86;25804;-71
2022/05/12 10:26:00;;;;;;;11.88;2.30;;;;;;;24.34;36.65;99786.75;1646454;87;25417;-70
2022/05/12 10:29:16;;;;;;;13.32;2.20;;;;;;;24.14;36.72;99792.12;1645845;86;27903;-70
2022/05/12 10:32:08;;;;;;;12.85;1.85;;;;;;;23.91;36.89;99801.70;1646379;85;25569;-73
2022/05/12 10:35:01;;;;;;;13.55;1.85;;;;;;;23.80;37.32;99815.00;1619525;87;25748;-71
2022/05/12 10:37:50;;;;;;;14.55;2.62;;;;;;;23.97;37.27;99816.03;1544971;91;25728;-70
2022/05/12 10:40:43;;;;;;;14.68;2.05;;;;;;;23.90;36.81;99829.90;1545067;91;25807;-73
2022/05/12 10:43:39;;;;;;;26.62;2.52;;;;;;;23.96;37.01;99834.39;1544076;92;27548;-71
2022/05/12 10:46:25;;;;;;;20.88;1.60;;;;;;;24.13;35.93;99830.64;1523983;94;25374;-72
2022/05/12 10:49:02;;;;;;;17.20;1.55;;;;;;;24.18;35.33;99833.55;1524054;92;25637;-72
2022/05/12 10:52:04;;;;;;;28.52;2.77;;;;;;;24.11;35.27;99839.14;1524788;92;25767;-71
2022/05/12 10:54:41;;;;;;;13.05;2.12;;;;;;;23.91;35.05;99852.80;1524171;94;25855;-70
2022/05/12 10:57:41;;;;;;;15.48;1.62;;;;;;;23.52;35.17;99838.75;1524049;94;28259;-71
2022/05/12 11:00:31;;;;;;;17.07;2.00;;;;;;;23.29;36.04;99847.00;1500168;95;25570;-72
2022/05/12 11:03:11;;;;;;;12.15;1.85;;;;;;;23.12;35.98;99853.65;1499403;95;25788;-71
2022/05/12 11:05:45;;;;;;;14.18;1.87;;;;;;;23.13;36.63;99877.27;1492735;94;26243;-72
2022/05/12 11:08:22;;;;;;;16.05;1.90;;;;;;;23.30;36.54;99857.63;1500286;95;25753;-71
2022/05/12 11:11:12;;;;;;;9.53;1.37;;;;;;;23.31;36.48;99853.70;1500825;95;27676;-71
2022/05/12 11:14:08;;;;;;;9.40;1.40;;;;;;;23.27;36.52;99863.95;1528764;91;25841;-71
2022/05/12 11:16:52;;;;;;;13.85;2.55;;;;;;;23.27;36.74;99855.68;1546826;91;26004;-72
2022/05/12 11:19:23;;;;;;;9.60;2.12;;;;;;;23.67;36.68;99856.75;1565931;91;25695;-71
2022/05/12 11:22:10;;;;;;;6.25;1.62;;;;;;;24.07;35.93;99861.28;1587728;89;25506;-72
2022/05/12 11:25:00;;;;;;;5.33;1.17;;;;;;;24.18;35.54;99857.03;1578992;89;27314;-72
2022/05/12 11:27:43;;;;;;;15.38;1.80;;;;;;;24.53;34.13;99853.02;1587282;89;26610;-71
2022/05/12 11:30:32;;;;;;;13.93;1.77;;;;;;;24.61;34.42;99856.52;1589917;89;25807;-72
2022/05/12 11:33:13;;;;;;;;;;;;;;;24.99;34.46;99859.14;1557585;91;25800;-71
2022/05/12 11:35:48;;;;;;;15.28;1.55;;;;;;;25.17;33.20;99856.11;1601197;86;25533;-72
2022/05/12 11:38:40;;;;;;;12.60;1.90;;;;;;;25.43;33.75;99852.36;1640850;86;27619;-72
2022/05/12 11:41:26;;;;;;;14.93;1.35;;;;;;;25.97;33.18;99854.98;1641339;86;25625;-72
2022/05/12 11:44:26;;;;;;;7.45;1.22;;;;;;;26.08;32.07;99851.98;1632181;86;25736;-72
2022/05/12 11:47:19;;;;;;;13.90;1.72;;;;;;;25.65;32.12;99861.85;1629016;87;25809;-72
2022/05/12 11:50:27;;;;;;;6.17;1.50;;;;;;;25.04;32.61;99861.43;1630452;87;25879;-73
2022/05/12 11:53:14;;;;;;;9.55;1.40;;;;;;;24.64;33.37;99875.62;1561128;90;27377;-71
2022/05/12 11:56:06;;;;;;;12.88;1.50;;;;;;;24.15;33.93;99891.78;1569859;90;25748;-73
2022/05/12 11:58:45;;;;;;;13.38;1.87;;;;;;;23.75;34.10;99882.30;1577595;90;25722;-72
2022/05/12 12:01:27;;;;;;;10.80;1.80;;;;;;;23.39;34.49;99890.28;1565933;90;25672;-72
2022/05/12 12:04:00;;;;;;;9.58;1.50;;;;;;;23.25;34.90;99888.42;1567914;90;25802;-72
2022/05/12 12:06:49;;;;;;;7.92;1.32;;;;;;;23.20;34.92;99888.07;1577442;90;27420;-71